createdAt,value
2023-04-21T00:01:15.249Z,99580.84
2023-04-21T00:03:43.711Z,99579.09
2023-04-21T00:06:14.574Z,99577.31
2023-04-21T00:08:42.167Z,99573.06
2023-04-21T00:11:09.646Z,99567.31
2023-04-21T00:13:39.617Z,99574.28
2023-04-21T00:16:13.210Z,99569.78
2023-04-21T00:18:40.609Z,99572.53
2023-04-21T00:21:08.496Z,99563.78
2023-04-21T00:23:37.185Z,99566.03
2023-04-21T00:26:06.173Z,99565.03
2023-04-21T00:28:36.011Z,99562.50
2023-04-21T00:31:07.270Z,99555.28
2023-04-21T00:33:35.948Z,99563.53
2023-04-21T00:36:04.881Z,99557.53
2023-04-21T00:38:32.261Z,99558.25
2023-04-21T00:41:01.910Z,99556.25
2023-04-21T00:43:30.049Z,99553.69
2023-04-21T00:45:58.538Z,99550.19
2023-04-21T00:48:26.448Z,99552.63
2023-04-21T00:50:59.030Z,99561.88
2023-04-21T00:53:26.309Z,99565.34
2023-04-21T00:55:53.793Z,99561.09
2023-04-21T00:58:21.623Z,99559.31
2023-04-21T01:00:49.604Z,99557.84
2023-04-21T01:03:18.370Z,99549.31
2023-04-21T01:05:47.398Z,99559.81
2023-04-21T01:08:16.190Z,99557.06
2023-04-21T01:10:46.475Z,99556.81
2023-04-21T01:13:14.085Z,99560.56
2023-04-21T01:15:42.328Z,99555.50
2023-04-21T01:18:11.164Z,99561.53
2023-04-21T01:20:46.336Z,99557.78
2023-04-21T01:23:15.556Z,99563.50
2023-04-21T01:25:45.075Z,99559.97
2023-04-21T01:28:16.705Z,99551.75
2023-04-21T01:30:50.664Z,99559.22
2023-04-21T01:33:18.922Z,99558.16
2023-04-21T01:35:46.800Z,99556.66
2023-04-21T01:38:14.194Z,99544.19
2023-04-21T01:40:43.768Z,99548.16
2023-04-21T01:43:10.897Z,99554.88
2023-04-21T01:45:40.495Z,99550.34
2023-04-21T01:48:09.565Z,99552.84
2023-04-21T01:50:38.124Z,99556.06
2023-04-21T01:53:11.073Z,99552.84
2023-04-21T01:55:40.952Z,99543.31
2023-04-21T01:58:12.512Z,99550.81
2023-04-21T02:00:43.787Z,99546.53
2023-04-21T02:03:14.117Z,99544.28
2023-04-21T02:05:46.107Z,99547.03
2023-04-21T02:08:15.844Z,99550.28
2023-04-21T02:10:45.459Z,99546.50
2023-04-21T02:13:16.192Z,99545.50
2023-04-21T02:15:46.412Z,99549.72
2023-04-21T02:18:16.974Z,99555.22
2023-04-21T02:20:45.847Z,99546.50
2023-04-21T02:23:14.432Z,99550.28
2023-04-21T02:25:44.414Z,99543.53
2023-04-21T02:28:13.186Z,99551.44
2023-04-21T02:30:42.652Z,99548.66
2023-04-21T02:33:11.533Z,99547.00
2023-04-21T02:35:39.197Z,99551.75
2023-04-21T02:38:09.443Z,99549.75
2023-04-21T02:40:39.153Z,99542.00
2023-04-21T02:43:06.831Z,99542.50
2023-04-21T02:45:34.804Z,99541.22
2023-04-21T02:48:02.547Z,99539.94
2023-04-21T02:50:32.324Z,99541.44
2023-04-21T02:52:59.849Z,99538.16
2023-04-21T02:55:27.836Z,99541.63
2023-04-21T02:57:55.000Z,99549.59
2023-04-21T03:00:26.148Z,99548.34
2023-04-21T03:02:56.674Z,99555.09
2023-04-21T03:05:24.967Z,99550.31
2023-04-21T03:07:52.090Z,99557.53
2023-04-21T03:10:19.877Z,99552.53
2023-04-21T03:12:49.269Z,99544.25
2023-04-21T03:15:19.681Z,99552.44
2023-04-21T03:17:47.981Z,99558.41
2023-04-21T03:20:16.481Z,99555.16
2023-04-21T03:22:43.757Z,99551.16
2023-04-21T03:25:12.132Z,99552.91
2023-04-21T03:27:41.588Z,99554.91
2023-04-21T03:30:10.953Z,99563.34
2023-04-21T03:32:40.626Z,99556.09
2023-04-21T03:35:08.550Z,99553.56
2023-04-21T03:37:35.914Z,99546.56
2023-04-21T03:40:08.867Z,99540.09
2023-04-21T03:42:36.836Z,99547.31
2023-04-21T03:45:10.768Z,99539.81
2023-04-21T03:47:38.785Z,99541.78
2023-04-21T03:50:08.518Z,99539.03
2023-04-21T03:52:39.400Z,99546.25
2023-04-21T03:55:12.732Z,99547.22
2023-04-21T03:57:43.009Z,99545.25
2023-04-21T04:00:11.649Z,99549.47
2023-04-21T04:02:46.617Z,99557.44
2023-04-21T04:05:14.836Z,99560.19
2023-04-21T04:07:43.566Z,99565.44
2023-04-21T04:10:12.740Z,99558.41
2023-04-21T04:12:41.812Z,99567.91
2023-04-21T04:15:12.244Z,99573.66
2023-04-21T04:17:39.851Z,99570.91
2023-04-21T04:20:09.625Z,99565.69
2023-04-21T04:22:37.315Z,99565.47
2023-04-21T04:25:06.289Z,99569.78
2023-04-21T04:27:35.191Z,99585.81
2023-04-21T04:30:03.679Z,99588.13
2023-04-21T04:32:33.726Z,99588.94
2023-04-21T04:35:02.929Z,99588.50
2023-04-21T04:37:34.640Z,99591.56
2023-04-21T04:40:02.432Z,99583.09
2023-04-21T04:42:32.943Z,99580.94
2023-04-21T04:45:03.495Z,99576.25
2023-04-21T04:47:30.659Z,99589.31
2023-04-21T04:49:58.198Z,99582.38
2023-04-21T04:52:25.659Z,99593.69
2023-04-21T04:54:54.361Z,99587.03
2023-04-21T04:57:21.832Z,99598.59
2023-04-21T04:59:49.324Z,99598.59
2023-04-21T05:02:16.676Z,99594.13
2023-04-21T05:04:44.377Z,99604.94
2023-04-21T05:07:11.620Z,99600.94
2023-04-21T05:09:39.045Z,99607.75
2023-04-21T05:12:06.195Z,99609.50
2023-04-21T05:14:36.047Z,99620.22
2023-04-21T05:17:03.938Z,99611.69
2023-04-21T05:19:31.486Z,99614.44
2023-04-21T05:22:00.909Z,99615.16
2023-04-21T05:24:29.275Z,99615.84
2023-04-21T05:26:58.840Z,99622.84
2023-04-21T05:29:26.366Z,99630.50
2023-04-21T05:31:53.523Z,99619.09
2023-04-21T05:34:21.729Z,99627.81
2023-04-21T05:36:49.229Z,99632.69
2023-04-21T05:39:18.311Z,99627.25
2023-04-21T05:41:46.104Z,99630.50
2023-04-21T05:44:13.920Z,99640.44
2023-04-21T05:46:41.510Z,99636.09
2023-04-21T05:49:11.967Z,99634.28
2023-04-21T05:51:39.260Z,99644.72
2023-04-21T05:54:06.914Z,99651.13
2023-04-21T05:56:34.956Z,99647.72
2023-04-21T05:59:02.351Z,99651.59
2023-04-21T06:01:32.133Z,99663.66
2023-04-21T06:04:00.009Z,99665.56
2023-04-21T06:06:29.622Z,99667.59
2023-04-21T06:08:57.854Z,99667.06
2023-04-21T06:11:25.054Z,99670.72
2023-04-21T06:13:58.464Z,99676.28
2023-04-21T06:16:28.168Z,99668.81
2023-04-21T06:18:59.188Z,99672.66
2023-04-21T06:21:26.291Z,99676.22
2023-04-21T06:23:56.605Z,99664.59
2023-04-21T06:26:24.076Z,99669.88
2023-04-21T06:28:52.446Z,99672.47
2023-04-21T06:31:20.070Z,99675.59
2023-04-21T06:33:47.826Z,99667.16
2023-04-21T06:36:18.228Z,99668.47
2023-04-21T06:38:48.235Z,99677.91
2023-04-21T06:41:18.857Z,99688.66
2023-04-21T06:43:46.649Z,99694.19
2023-04-21T06:46:17.010Z,99687.63
2023-04-21T06:48:47.731Z,99694.91
2023-04-21T06:51:17.515Z,99693.34
2023-04-21T06:53:49.370Z,99700.88
2023-04-21T06:56:16.834Z,99704.78
2023-04-21T06:58:44.397Z,99698.00
2023-04-21T07:01:11.588Z,99710.56
2023-04-21T07:03:39.035Z,99706.94
2023-04-21T07:06:06.591Z,99715.91
2023-04-21T07:08:33.953Z,99715.63
2023-04-21T07:11:01.224Z,99712.56
2023-04-21T07:13:28.613Z,99717.72
2023-04-21T07:15:57.896Z,99720.88
2023-04-21T07:18:26.422Z,99719.03
2023-04-21T07:20:53.529Z,99722.38
2023-04-21T07:23:21.177Z,99725.84
2023-04-21T07:25:48.239Z,99726.41
2023-04-21T07:28:19.977Z,99728.13
2023-04-21T07:30:47.113Z,99732.38
2023-04-21T07:33:14.482Z,99732.56
2023-04-21T07:35:43.761Z,99730.69
2023-04-21T07:38:11.198Z,99736.09
2023-04-21T07:40:38.359Z,99738.06
2023-04-21T07:43:05.795Z,99731.34
2023-04-21T07:45:32.800Z,99734.06
2023-04-21T07:48:00.246Z,99735.59
2023-04-21T07:50:27.516Z,99745.34
2023-04-21T07:52:57.134Z,99737.56
2023-04-21T07:55:24.151Z,99737.78
2023-04-21T07:57:51.612Z,99728.59
2023-04-21T08:00:18.752Z,99733.94
2023-04-21T08:02:46.220Z,99720.63
2023-04-21T08:05:13.545Z,99721.72
2023-04-21T08:07:46.162Z,99717.09
2023-04-21T08:10:13.247Z,99734.31
2023-04-21T08:12:40.674Z,99731.22
2023-04-21T08:15:12.596Z,99739.31
2023-04-21T08:17:40.104Z,99729.75
2023-04-21T08:20:07.635Z,99735.63
2023-04-21T08:22:36.683Z,99723.59
2023-04-21T08:25:05.771Z,99728.94
2023-04-21T08:27:33.276Z,99735.19
2023-04-21T08:30:00.611Z,99729.31
2023-04-21T08:32:28.060Z,99732.44
2023-04-21T08:34:55.372Z,99736.78
2023-04-21T08:37:25.719Z,99735.31
2023-04-21T08:39:53.792Z,99729.28
2023-04-21T08:42:23.545Z,99729.47
2023-04-21T08:44:50.734Z,99736.94
2023-04-21T08:47:18.373Z,99730.88
2023-04-21T08:49:46.046Z,99726.25
2023-04-21T08:52:14.622Z,99726.84
2023-04-21T08:54:41.809Z,99719.81
2023-04-21T08:57:15.442Z,99720.50
2023-04-21T08:59:45.443Z,99719.31
2023-04-21T09:02:17.358Z,99725.53
2023-04-21T09:04:45.994Z,99725.91
2023-04-21T09:07:31.218Z,99712.88
2023-04-21T09:09:58.519Z,99717.84
2023-04-21T09:12:25.971Z,99720.59
2023-04-21T09:14:53.091Z,99719.94
2023-04-21T09:17:22.411Z,99712.16
2023-04-21T09:19:52.130Z,99707.63
2023-04-21T09:22:19.800Z,99704.34
2023-04-21T09:24:47.495Z,99697.50
2023-04-21T09:27:16.508Z,99687.53
2023-04-21T09:29:48.430Z,99695.50
2023-04-21T09:32:22.172Z,99697.88
2023-04-21T09:34:58.379Z,99692.94
2023-04-21T09:37:32.023Z,99697.13
2023-04-21T09:42:31.333Z,99689.41
2023-04-21T09:47:36.227Z,99678.59
2023-04-21T09:50:04.722Z,99672.22
2023-04-21T09:52:34.782Z,99673.59
2023-04-21T09:55:04.388Z,99673.94
2023-04-21T09:57:32.874Z,99678.22
2023-04-21T10:00:01.534Z,99684.34
2023-04-21T10:02:30.908Z,99678.25
2023-04-21T10:05:01.163Z,99676.19
2023-04-21T10:07:28.758Z,99685.91
2023-04-21T10:09:56.631Z,99668.03
2023-04-21T10:12:25.183Z,99665.84
2023-04-21T10:14:53.647Z,99666.53
2023-04-21T10:17:27.952Z,99662.41
2023-04-21T10:19:57.863Z,99662.06
2023-04-21T10:22:28.866Z,99658.97
2023-04-21T10:24:59.964Z,99663.78
2023-04-21T10:27:41.149Z,99649.09
2023-04-21T10:30:26.194Z,99643.22
2023-04-21T10:33:12.884Z,99648.72
2023-04-21T10:36:00.193Z,99636.41
2023-04-21T10:38:40.978Z,99638.84
2023-04-21T10:41:27.661Z,99629.97
2023-04-21T10:43:59.545Z,99632.03
2023-04-21T10:46:40.705Z,99635.44
2023-04-21T10:49:09.388Z,99627.44
2023-04-21T10:51:55.283Z,99635.78
2023-04-21T10:54:29.790Z,99632.19
2023-04-21T10:56:59.003Z,99620.50
2023-04-21T10:59:27.333Z,99628.72
2023-04-21T11:01:54.842Z,99623.81
2023-04-21T11:04:23.435Z,99622.34
2023-04-21T11:07:17.225Z,99613.84
2023-04-21T11:09:47.861Z,99619.69
2023-04-21T11:12:15.955Z,99612.75
2023-04-21T11:14:43.984Z,99610.94
2023-04-21T11:17:14.452Z,99607.09
2023-04-21T11:19:42.180Z,99606.28
2023-04-21T11:22:09.239Z,99605.31
2023-04-21T11:24:37.115Z,99609.31
2023-04-21T11:27:08.099Z,99604.69
2023-04-21T11:29:35.545Z,99600.69
2023-04-21T11:32:06.146Z,99604.09
2023-04-21T11:34:33.625Z,99601.16
2023-04-21T11:37:00.668Z,99600.06
2023-04-21T11:39:28.166Z,99614.44
2023-04-21T11:41:55.150Z,99597.00
2023-04-21T11:44:35.164Z,99603.41
2023-04-21T11:47:17.705Z,99593.94
2023-04-21T11:49:46.751Z,99596.28
2023-04-21T11:52:45.723Z,99591.72
2023-04-21T11:55:20.136Z,99595.59
2023-04-21T11:57:47.156Z,99592.16
2023-04-21T12:00:15.578Z,99581.78
2023-04-21T12:02:43.339Z,99592.44
2023-04-21T12:05:11.942Z,99586.53
2023-04-21T12:07:38.927Z,99588.75
2023-04-21T12:10:10.808Z,99581.19
2023-04-21T12:12:41.230Z,99585.31
2023-04-21T12:15:09.566Z,99581.91
2023-04-21T12:17:55.412Z,99579.84
2023-04-21T12:20:23.774Z,99581.63
2023-04-21T12:22:51.039Z,99576.88
2023-04-21T12:25:18.536Z,99573.19
2023-04-21T12:27:52.785Z,99563.44
2023-04-21T12:30:20.916Z,99569.97
2023-04-21T12:32:48.293Z,99570.66
2023-04-21T12:35:16.177Z,99564.47
2023-04-21T12:37:43.261Z,99560.31
2023-04-21T12:40:15.868Z,99560.59
2023-04-21T12:42:42.908Z,99558.84
2023-04-21T12:45:10.801Z,99554.53
2023-04-21T12:47:37.808Z,99552.16
2023-04-21T12:50:05.353Z,99559.13
2023-04-21T12:52:32.359Z,99548.75
2023-04-21T12:54:59.745Z,99552.59
2023-04-21T12:57:26.746Z,99543.41
2023-04-21T12:59:55.383Z,99544.28
2023-04-21T13:02:22.880Z,99543.97
2023-04-21T13:04:50.650Z,99541.34
2023-04-21T13:07:21.534Z,99541.19
2023-04-21T13:09:50.919Z,99538.66
2023-04-21T13:12:18.448Z,99538.34
2023-04-21T13:14:46.024Z,99536.59
2023-04-21T13:17:13.378Z,99531.56
2023-04-21T13:19:43.313Z,99527.84
2023-04-21T13:22:10.550Z,99523.69
2023-04-21T13:24:38.077Z,99522.97
2023-04-21T13:27:05.332Z,99523.88
2023-04-21T13:29:34.616Z,99515.97
2023-04-21T13:32:02.512Z,99514.75
2023-04-21T13:34:30.600Z,99512.09
2023-04-21T13:36:58.016Z,99511.06
2023-04-21T13:39:25.884Z,99503.69
2023-04-21T13:41:54.234Z,99504.88
2023-04-21T13:44:21.763Z,99503.47
2023-04-21T13:46:48.915Z,99495.47
2023-04-21T13:49:16.545Z,99487.44
2023-04-21T13:51:43.520Z,99488.44
2023-04-21T13:54:10.998Z,99489.03
2023-04-21T13:56:38.542Z,99477.19
2023-04-21T13:59:10.825Z,99470.84
2023-04-21T14:01:38.005Z,99478.34
2023-04-21T14:04:05.812Z,99471.44
2023-04-21T14:06:33.265Z,99475.44
2023-04-21T14:09:00.942Z,99475.88
2023-04-21T14:11:28.352Z,99468.34
2023-04-21T14:14:08.340Z,99456.19
2023-04-21T14:16:36.591Z,99464.66
2023-04-21T14:19:04.179Z,99460.66
2023-04-21T14:21:33.028Z,99456.56
2023-04-21T14:24:00.407Z,99464.97
2023-04-21T14:26:27.464Z,99447.31
2023-04-21T14:28:54.806Z,99450.91
2023-04-21T14:31:22.502Z,99445.59
2023-04-21T14:33:52.424Z,99446.72
2023-04-21T14:36:19.966Z,99452.78
2023-04-21T14:38:47.373Z,99442.75
2023-04-21T14:41:14.706Z,99439.66
2023-04-21T14:43:42.233Z,99442.75
2023-04-21T14:46:11.624Z,99438.91
2023-04-21T14:48:39.307Z,99429.88
2023-04-21T14:51:09.414Z,99427.19
2023-04-21T14:53:37.332Z,99424.69
2023-04-21T14:56:04.387Z,99419.06
2023-04-21T14:58:31.565Z,99417.59
2023-04-21T15:01:01.769Z,99422.31
2023-04-21T15:03:29.151Z,99412.84
2023-04-21T15:05:56.345Z,99407.66
2023-04-21T15:08:23.814Z,99417.28
2023-04-21T15:10:51.384Z,99404.28
2023-04-21T15:13:18.927Z,99406.34
2023-04-21T15:15:46.081Z,99409.16
2023-04-21T15:18:14.196Z,99401.91
2023-04-21T15:20:45.511Z,99409.56
2023-04-21T15:23:17.676Z,99405.16
2023-04-21T15:25:44.741Z,99404.72
2023-04-21T15:28:13.122Z,99404.25
2023-04-21T15:30:40.412Z,99400.69
2023-04-21T15:33:08.646Z,99400.13
2023-04-21T15:35:35.565Z,99394.50
2023-04-21T15:38:02.913Z,99403.03
2023-04-21T15:40:29.842Z,99394.34
2023-04-21T15:42:57.067Z,99390.94
2023-04-21T15:45:24.103Z,99399.66
2023-04-21T15:47:51.592Z,99396.72
2023-04-21T15:50:18.625Z,99393.75
2023-04-21T15:52:46.138Z,99392.44
2023-04-21T15:55:13.280Z,99393.31
2023-04-21T15:57:40.942Z,99379.56
2023-04-21T16:00:10.904Z,99382.03
2023-04-21T16:02:38.768Z,99379.03
2023-04-21T16:05:08.886Z,99385.19
2023-04-21T16:07:36.720Z,99381.00
2023-04-21T16:10:04.255Z,99377.56
2023-04-21T16:12:32.433Z,99370.84
2023-04-21T16:15:09.326Z,99373.94
2023-04-21T16:17:46.498Z,99373.88
2023-04-21T16:20:16.301Z,99371.78
2023-04-21T16:22:43.727Z,99368.19
2023-04-21T16:25:16.114Z,99370.47
2023-04-21T16:27:43.575Z,99365.81
2023-04-21T16:30:10.932Z,99367.34
2023-04-21T16:32:38.632Z,99370.28
2023-04-21T16:35:07.959Z,99376.78
2023-04-21T16:37:37.251Z,99365.75
2023-04-21T16:40:06.540Z,99371.25
2023-04-21T16:42:34.306Z,99369.53
2023-04-21T16:45:03.613Z,99368.97
2023-04-21T16:47:31.799Z,99364.00
2023-04-21T16:49:59.080Z,99373.34
2023-04-21T16:52:29.545Z,99365.09
2023-04-21T16:54:56.844Z,99368.72
2023-04-21T16:57:25.233Z,99366.06
2023-04-21T16:59:53.008Z,99364.25
2023-04-21T17:02:25.454Z,99365.06
2023-04-21T17:04:52.990Z,99357.00
2023-04-21T17:07:20.571Z,99359.13
2023-04-21T17:09:47.810Z,99354.53
2023-04-21T17:12:15.273Z,99362.19
2023-04-21T17:14:44.853Z,99362.47
2023-04-21T17:17:12.302Z,99362.31
2023-04-21T17:19:41.391Z,99358.84
2023-04-21T17:22:09.025Z,99361.94
2023-04-21T17:24:51.839Z,99366.47
2023-04-21T17:27:20.983Z,99358.44
2023-04-21T17:29:48.521Z,99355.88
2023-04-21T17:32:18.086Z,99356.06
2023-04-21T17:34:45.681Z,99349.00
2023-04-21T17:37:13.139Z,99356.69
2023-04-21T17:39:40.275Z,99356.72
2023-04-21T17:42:10.253Z,99351.22
2023-04-21T17:44:37.486Z,99359.44
2023-04-21T17:47:08.390Z,99357.22
2023-04-21T17:49:35.862Z,99358.75
2023-04-21T17:52:03.597Z,99352.81
2023-04-21T17:54:37.677Z,99359.34
2023-04-21T17:57:07.682Z,99352.84
2023-04-21T17:59:34.784Z,99355.22
2023-04-21T18:02:05.722Z,99354.47
2023-04-21T18:04:34.628Z,99355.91
2023-04-21T18:07:05.809Z,99352.94
2023-04-21T18:09:32.912Z,99346.75
2023-04-21T18:12:00.348Z,99347.88
2023-04-21T18:14:27.703Z,99340.56
2023-04-21T18:16:57.583Z,99354.97
2023-04-21T18:19:24.859Z,99352.31
2023-04-21T18:21:52.450Z,99355.16
2023-04-21T18:24:19.519Z,99362.34
2023-04-21T18:26:47.072Z,99357.63
2023-04-21T18:29:18.377Z,99366.81
2023-04-21T18:31:46.131Z,99355.22
2023-04-21T18:34:14.832Z,99365.00
2023-04-21T18:36:45.903Z,99367.72
2023-04-21T18:39:13.838Z,99366.16
2023-04-21T18:41:42.362Z,99361.09
2023-04-21T18:44:09.914Z,99371.94
2023-04-21T18:46:38.257Z,99373.91
2023-04-21T18:49:06.024Z,99379.91
2023-04-21T18:51:33.728Z,99372.78
2023-04-21T18:54:06.578Z,99365.34
2023-04-21T18:56:38.412Z,99371.75
2023-04-21T18:59:08.537Z,99372.19
2023-04-21T19:01:38.219Z,99367.84
2023-04-21T19:04:07.496Z,99367.53
2023-04-21T19:06:35.738Z,99370.00
2023-04-21T19:09:07.807Z,99372.56
2023-04-21T19:11:38.305Z,99368.84
2023-04-21T19:14:06.503Z,99367.13
2023-04-21T19:16:35.820Z,99368.41
2023-04-21T19:19:05.747Z,99369.81
2023-04-21T19:21:33.806Z,99373.78
2023-04-21T19:24:01.654Z,99372.94
2023-04-21T19:26:30.643Z,99370.81
2023-04-21T19:28:58.873Z,99366.94
2023-04-21T19:31:30.639Z,99366.53
2023-04-21T19:33:59.195Z,99365.44
2023-04-21T19:36:30.759Z,99366.63
2023-04-21T19:39:01.009Z,99368.53
2023-04-21T19:41:32.856Z,99361.38
2023-04-21T19:44:05.437Z,99373.09
2023-04-21T19:46:39.884Z,99363.09
2023-04-21T19:49:09.694Z,99358.16
2023-04-21T19:51:37.465Z,99361.97
2023-04-21T19:54:11.839Z,99361.34
2023-04-21T19:56:43.399Z,99355.09
2023-04-21T19:59:12.459Z,99363.72
2023-04-21T20:01:44.017Z,99364.47
2023-04-21T20:04:12.421Z,99365.53
2023-04-21T20:06:41.775Z,99360.63
2023-04-21T20:09:11.596Z,99357.69
2023-04-21T20:11:43.027Z,99359.28
2023-04-21T20:14:13.465Z,99365.66
2023-04-21T20:16:46.221Z,99365.00
2023-04-21T20:19:17.531Z,99362.53
2023-04-21T20:21:49.735Z,99364.63
2023-04-21T20:24:18.006Z,99352.91
2023-04-21T20:26:48.687Z,99362.97
2023-04-21T20:29:18.334Z,99363.81
2023-04-21T20:31:50.229Z,99365.91
2023-04-21T20:34:20.239Z,99370.75
2023-04-21T20:36:50.265Z,99367.88
2023-04-21T20:39:19.204Z,99372.19
2023-04-21T20:41:50.943Z,99364.47
2023-04-21T20:44:25.933Z,99368.28
2023-04-21T20:46:54.576Z,99368.28
2023-04-21T20:49:22.773Z,99367.84
2023-04-21T20:51:59.294Z,99368.38
2023-04-21T20:54:28.285Z,99361.41
2023-04-21T20:56:57.433Z,99364.75
2023-04-21T20:59:28.623Z,99370.59
2023-04-21T21:02:07.426Z,99367.34
2023-04-21T21:04:37.217Z,99372.72
2023-04-21T21:07:07.772Z,99366.50
2023-04-21T21:09:35.879Z,99371.56
2023-04-21T21:12:07.241Z,99369.63
2023-04-21T21:14:38.427Z,99368.41
2023-04-21T21:17:09.819Z,99377.00
2023-04-21T21:19:38.044Z,99373.00
2023-04-21T21:22:08.562Z,99373.00
2023-04-21T21:24:42.410Z,99372.56
2023-04-21T21:27:15.125Z,99385.38
2023-04-21T21:29:44.285Z,99387.19
2023-04-21T21:32:12.172Z,99377.66
2023-04-21T21:34:43.265Z,99374.66
2023-04-21T21:37:11.925Z,99383.75
2023-04-21T21:39:45.439Z,99379.75
2023-04-21T21:42:15.830Z,99377.03
2023-04-21T21:44:44.454Z,99382.06
2023-04-21T21:47:11.989Z,99377.09
2023-04-21T21:49:41.430Z,99380.66
2023-04-21T21:52:15.150Z,99380.94
2023-04-21T21:54:47.401Z,99383.72
2023-04-21T21:57:14.859Z,99385.28
2023-04-21T21:59:43.142Z,99388.31
2023-04-21T22:02:11.388Z,99382.31
2023-04-21T22:04:42.032Z,99381.84
2023-04-21T22:07:11.224Z,99377.09
2023-04-21T22:09:42.249Z,99382.91
2023-04-21T22:12:10.660Z,99382.66
2023-04-21T22:14:43.954Z,99378.94
2023-04-21T22:17:13.168Z,99375.44
2023-04-21T22:19:42.088Z,99381.25
2023-04-21T22:22:11.989Z,99368.75
2023-04-21T22:24:40.664Z,99376.78
2023-04-21T22:27:10.474Z,99374.53
2023-04-21T22:29:39.267Z,99371.78
2023-04-21T22:32:09.838Z,99366.03
2023-04-21T22:34:39.320Z,99369.06
2023-04-21T22:37:09.250Z,99369.81
2023-04-21T22:39:38.558Z,99368.31
2023-04-21T22:42:09.828Z,99363.28
2023-04-21T22:44:37.360Z,99366.81
2023-04-21T22:47:05.935Z,99365.31
2023-04-21T22:49:33.707Z,99368.34
2023-04-21T22:52:08.559Z,99370.84
2023-04-21T22:54:36.330Z,99369.13
2023-04-21T22:57:04.317Z,99377.69
2023-04-21T22:59:45.456Z,99368.44
2023-04-21T23:02:17.431Z,99378.22
2023-04-21T23:04:48.485Z,99378.75
2023-04-21T23:07:19.784Z,99382.03
2023-04-21T23:09:47.598Z,99388.53
2023-04-21T23:12:20.687Z,99382.31
2023-04-21T23:14:49.019Z,99387.34
2023-04-21T23:17:18.897Z,99381.34
2023-04-21T23:19:51.004Z,99382.84
2023-04-21T23:22:24.193Z,99372.09
2023-04-21T23:24:56.230Z,99378.63
2023-04-21T23:27:31.156Z,99378.38
2023-04-21T23:30:05.597Z,99377.38
2023-04-21T23:32:35.448Z,99371.66
2023-04-21T23:35:02.681Z,99371.16
2023-04-21T23:37:43.631Z,99375.66
2023-04-21T23:40:23.272Z,99366.16
2023-04-21T23:42:56.903Z,99366.41
2023-04-21T23:45:31.618Z,99368.91
2023-04-21T23:47:59.327Z,99369.69
2023-04-21T23:50:34.365Z,99369.19
2023-04-21T23:53:02.849Z,99373.47
2023-04-21T23:55:32.830Z,99372.44
2023-04-21T23:58:01.307Z,99358.19
